Blue Ridge Highway — 3FEY4 — position and weather

sailwx.info

Track history (hours):
 
Tides and Currents Weather Stations Pressure Air Temp Water Temp Dewpoint Dewpoint Depression Visibility Wind Speed Wind Dir Waves Ship Positions

Blue Ridge Highway

Last reported at 2014-Nov-23 05:28 UTC. Time now 2014-Nov-24 12:28 UTC.
Position N 29°56' E 122°16'.

Length 180 m; draft 7 m.

Type: Cargo ship. MMSI: 355558000.

Date/timePositionNaut miles runAvg speedWind from/ knotsBaromVisibWave heightAir tempDewpointWater temp
2014-Nov-23 05:28N 29°56' E 122°16'0 0.0
2014-Nov-23 01:04N 29°56' E 122°16'0 0.0
2014-Nov-22 23:28N 29°56' E 122°16'0 0.0
2014-Nov-22 19:22N 29°56' E 122°16'0 0.0
2014-Nov-22 17:28N 29°56' E 122°16'0 0.0
2014-Nov-22 16:10N 29°56' E 122°16'0 0.0
2014-Nov-22 08:10N 29°56' E 122°16'0 0.0
2014-Nov-22 06:10N 29°56' E 122°16'0 0.0
2014-Nov-22 05:28N 29°56' E 122°16'0 0.0
2014-Nov-22 01:10N 29°56' E 122°16'0 0.0
2014-Nov-22 00:10N 29°56' E 122°16'0 0.0
2014-Nov-21 23:22N 29°56' E 122°16'0 0.0
2014-Nov-21 22:22N 29°56' E 122°16'0 0.0
2014-Nov-21 20:22N 29°56' E 122°16'0 0.0
2014-Nov-21 19:10N 29°56' E 122°16'0 0.0
2014-Nov-21 15:04N 29°56' E 122°16'0 0.0
2014-Nov-21 00:03N 29°56' E 122°16'0 0.0
2014-Nov-20 23:33N 29°56' E 122°16'0 0.0
2014-Nov-20 22:27N 29°56' E 122°16'0 0.0
2014-Nov-20 21:24N 29°56' E 122°16'0 0.0
2014-Nov-20 20:27N 29°56' E 122°16'0 0.0
2014-Nov-20 19:33N 29°56' E 122°16'0 0.0
2014-Nov-20 18:21N 29°56' E 122°16'0 0.0
2014-Nov-20 17:27N 29°56' E 122°16'0 0.0
2014-Nov-20 16:21N 29°56' E 122°16'0 0.0
2014-Nov-20 15:27N 29°56' E 122°16'0 0.0
2014-Nov-20 14:27N 29°56' E 122°16'0 0.0
2014-Nov-20 12:18N 29°56' E 122°16'3 4.0
2014-Nov-20 11:33N 29°55' E 122°13'1 0.2
2014-Nov-20 08:09N 29°54' E 122°13'0 0.1
2014-Nov-20 07:27N 29°54' E 122°13'0 0.0
2014-Nov-20 06:09N 29°54' E 122°13'0 0.0
2014-Nov-20 01:15N 29°54' E 122°13'0 0.0
2014-Nov-19 22:21N 29°54' E 122°13'0 0.1
2014-Nov-19 21:09N 29°54' E 122°13'0 0.0
2014-Nov-19 18:30N 29°54' E 122°13'0 0.0
2014-Nov-19 10:15N 29°54' E 122°13'0 0.0
2014-Nov-19 07:15N 29°54' E 122°13'0 0.0
2014-Nov-19 03:33N 29°54' E 122°13'7 6.7
2014-Nov-19 02:33N 29°48' E 122°15'10 9.6
2014-Nov-19 01:33N 29°44' E 122°26'7 7.2
2014-Nov-19 00:33N 29°41' E 122°33'7 6.4
2014-Nov-18 23:32N 29°37' E 122°39'17 1.6
2014-Nov-18 12:31N 29°29' E 122°57'424 9.9
2014-Nov-16 17:33N 22°58' E 119°53'1515.2
2014-Nov-16 16:33N 22°43' E 119°53'1515.2
2014-Nov-16 15:34N 22°28' E 119°53'  
Track history (hours):
 
Tides and Currents Weather Stations Pressure Air Temp Water Temp Dewpoint Dewpoint Depression Visibility Wind Speed Wind Dir Waves Ship Positions

Blue Ridge Highway

Last reported at 2014-Nov-23 05:28 UTC. Time now 2014-Nov-24 12:28 UTC.
Position N 29°56' E 122°16'.

Length 180 m; draft 7 m.

Type: Cargo ship. MMSI: 355558000.

Date/timePositionNaut miles runAvg speedWind from/ knotsBaromVisibWave heightAir tempDewpointWater temp
2014-Nov-23 05:28N 29°56' E 122°16'0 0.0
2014-Nov-23 01:04N 29°56' E 122°16'0 0.0
2014-Nov-22 23:28N 29°56' E 122°16'0 0.0
2014-Nov-22 19:22N 29°56' E 122°16'0 0.0
2014-Nov-22 17:28N 29°56' E 122°16'0 0.0
2014-Nov-22 16:10N 29°56' E 122°16'0 0.0
2014-Nov-22 08:10N 29°56' E 122°16'0 0.0
2014-Nov-22 06:10N 29°56' E 122°16'0 0.0
2014-Nov-22 05:28N 29°56' E 122°16'0 0.0
2014-Nov-22 01:10N 29°56' E 122°16'0 0.0
2014-Nov-22 00:10N 29°56' E 122°16'0 0.0
2014-Nov-21 23:22N 29°56' E 122°16'0 0.0
2014-Nov-21 22:22N 29°56' E 122°16'0 0.0
2014-Nov-21 20:22N 29°56' E 122°16'0 0.0
2014-Nov-21 19:10N 29°56' E 122°16'0 0.0
2014-Nov-21 15:04N 29°56' E 122°16'0 0.0
2014-Nov-21 00:03N 29°56' E 122°16'0 0.0
2014-Nov-20 23:33N 29°56' E 122°16'0 0.0
2014-Nov-20 22:27N 29°56' E 122°16'0 0.0
2014-Nov-20 21:24N 29°56' E 122°16'0 0.0
2014-Nov-20 20:27N 29°56' E 122°16'0 0.0
2014-Nov-20 19:33N 29°56' E 122°16'0 0.0
2014-Nov-20 18:21N 29°56' E 122°16'0 0.0
2014-Nov-20 17:27N 29°56' E 122°16'0 0.0
2014-Nov-20 16:21N 29°56' E 122°16'0 0.0
2014-Nov-20 15:27N 29°56' E 122°16'0 0.0
2014-Nov-20 14:27N 29°56' E 122°16'0 0.0
2014-Nov-20 12:18N 29°56' E 122°16'3 4.0
2014-Nov-20 11:33N 29°55' E 122°13'1 0.2
2014-Nov-20 08:09N 29°54' E 122°13'0 0.1
2014-Nov-20 07:27N 29°54' E 122°13'0 0.0
2014-Nov-20 06:09N 29°54' E 122°13'0 0.0
2014-Nov-20 01:15N 29°54' E 122°13'0 0.0
2014-Nov-19 22:21N 29°54' E 122°13'0 0.1
2014-Nov-19 21:09N 29°54' E 122°13'0 0.0
2014-Nov-19 18:30N 29°54' E 122°13'0 0.0
2014-Nov-19 10:15N 29°54' E 122°13'0 0.0
2014-Nov-19 07:15N 29°54' E 122°13'0 0.0
2014-Nov-19 03:33N 29°54' E 122°13'7 6.7
2014-Nov-19 02:33N 29°48' E 122°15'10 9.6
2014-Nov-19 01:33N 29°44' E 122°26'7 7.2
2014-Nov-19 00:33N 29°41' E 122°33'7 6.4
2014-Nov-18 23:32N 29°37' E 122°39'17 1.6
2014-Nov-18 12:31N 29°29' E 122°57'424 9.9
2014-Nov-16 17:33N 22°58' E 119°53'1515.2
2014-Nov-16 16:33N 22°43' E 119°53'1515.2
2014-Nov-16 15:34N 22°28' E 119°53'  

Dump ship's entire track history